sensor_id;sensor_type;location;lat;lon;timestamp;P1;durP1;ratioP1;P2;durP2;ratioP2
1078;SDS011;528;47.872;11.478;2022-10-15T00:09:39;3.77;;;1.90;;
1078;SDS011;528;47.872;11.478;2022-10-15T00:12:31;1.50;;;1.40;;
1078;SDS011;528;47.872;11.478;2022-10-15T00:15:30;2.80;;;1.47;;
1078;SDS011;528;47.872;11.478;2022-10-15T00:18:36;2.10;;;1.30;;
1078;SDS011;528;47.872;11.478;2022-10-15T00:21:59;3.00;;;1.57;;
1078;SDS011;528;47.872;11.478;2022-10-15T00:27:54;2.57;;;1.10;;
1078;SDS011;528;47.872;11.478;2022-10-15T00:30:41;1.70;;;1.60;;
1078;SDS011;528;47.872;11.478;2022-10-15T00:33:31;1.20;;;1.10;;
1078;SDS011;528;47.872;11.478;2022-10-15T00:37:11;1.47;;;1.37;;
1078;SDS011;528;47.872;11.478;2022-10-15T00:39:35;1.87;;;1.60;;
1078;SDS011;528;47.872;11.478;2022-10-15T04:52:13;0.80;;;0.70;;
1078;SDS011;528;47.872;11.478;2022-10-15T04:54:43;1.67;;;0.70;;
1078;SDS011;528;47.872;11.478;2022-10-15T05:00:34;2.13;;;0.67;;
1078;SDS011;528;47.872;11.478;2022-10-15T07:00:03;1.37;;;1.27;;
1078;SDS011;528;47.872;11.478;2022-10-15T07:03:11;1.23;;;0.60;;
1078;SDS011;528;47.872;11.478;2022-10-15T07:06:02;0.80;;;0.60;;
1078;SDS011;528;47.872;11.478;2022-10-15T07:08:47;0.80;;;0.80;;
1078;SDS011;528;47.872;11.478;2022-10-15T07:11:33;0.87;;;0.87;;
1078;SDS011;528;47.872;11.478;2022-10-15T07:14:16;1.60;;;1.30;;
1078;SDS011;528;47.872;11.478;2022-10-15T07:17:00;1.00;;;0.90;;
1078;SDS011;528;47.872;11.478;2022-10-15T07:19:48;0.90;;;0.70;;
1078;SDS011;528;47.872;11.478;2022-10-15T07:22:27;0.70;;;0.67;;
1078;SDS011;528;47.872;11.478;2022-10-15T07:25:27;0.77;;;0.50;;
1078;SDS011;528;47.872;11.478;2022-10-15T07:28:10;1.40;;;0.83;;
1078;SDS011;528;47.872;11.478;2022-10-15T07:37:27;0.77;;;0.77;;
1078;SDS011;528;47.872;11.478;2022-10-15T07:40:29;0.60;;;0.60;;
1078;SDS011;528;47.872;11.478;2022-10-15T07:43:25;0.80;;;0.80;;
1078;SDS011;528;47.872;11.478;2022-10-15T07:46:29;1.63;;;0.80;;
1078;SDS011;528;47.872;11.478;2022-10-15T07:49:30;1.00;;;0.63;;
1078;SDS011;528;47.872;11.478;2022-10-15T07:52:15;1.37;;;0.80;;
1078;SDS011;528;47.872;11.478;2022-10-15T07:55:20;1.43;;;0.80;;
1078;SDS011;528;47.872;11.478;2022-10-15T07:59:46;1.00;;;1.00;;
1078;SDS011;528;47.872;11.478;2022-10-15T08:01:38;0.67;;;0.67;;
1078;SDS011;528;47.872;11.478;2022-10-15T08:04:18;1.17;;;0.80;;
1078;SDS011;528;47.872;11.478;2022-10-15T08:13:33;0.70;;;0.50;;
1078;SDS011;528;47.872;11.478;2022-10-15T08:18:47;0.57;;;0.57;;
1078;SDS011;528;47.872;11.478;2022-10-15T08:20:15;0.60;;;0.60;;
1078;SDS011;528;47.872;11.478;2022-10-15T08:26:35;0.70;;;0.60;;
1078;SDS011;528;47.872;11.478;2022-10-15T08:33:27;0.60;;;0.60;;
1078;SDS011;528;47.872;11.478;2022-10-15T08:36:10;1.90;;;0.80;;
1078;SDS011;528;47.872;11.478;2022-10-15T08:38:52;0.60;;;0.60;;
1078;SDS011;528;47.872;11.478;2022-10-15T08:41:37;1.10;;;1.00;;
1078;SDS011;528;47.872;11.478;2022-10-15T08:56:12;0.70;;;0.70;;
1078;SDS011;528;47.872;11.478;2022-10-15T09:06:42;1.20;;;1.00;;
1078;SDS011;528;47.872;11.478;2022-10-15T09:09:13;0.83;;;0.83;;
1078;SDS011;528;47.872;11.478;2022-10-15T09:11:55;0.77;;;0.77;;
1078;SDS011;528;47.872;11.478;2022-10-15T09:14:31;1.10;;;1.00;;
1078;SDS011;528;47.872;11.478;2022-10-15T09:17:55;0.97;;;0.83;;
1078;SDS011;528;47.872;11.478;2022-10-15T09:20:29;1.23;;;0.97;;
1078;SDS011;528;47.872;11.478;2022-10-15T09:23:11;1.00;;;0.90;;
1078;SDS011;528;47.872;11.478;2022-10-15T09:25:45;2.07;;;1.30;;
1078;SDS011;528;47.872;11.478;2022-10-15T11:54:44;1.90;;;1.73;;
1078;SDS011;528;47.872;11.478;2022-10-15T11:57:19;1.40;;;1.30;;
1078;SDS011;528;47.872;11.478;2022-10-15T12:00:04;2.37;;;1.23;;
1078;SDS011;528;47.872;11.478;2022-10-15T12:03:09;1.30;;;1.00;;
1078;SDS011;528;47.872;11.478;2022-10-15T12:05:59;0.90;;;0.90;;
1078;SDS011;528;47.872;11.478;2022-10-15T12:09:04;1.80;;;0.90;;
1078;SDS011;528;47.872;11.478;2022-10-15T13:03:06;1.57;;;1.43;;
1078;SDS011;528;47.872;11.478;2022-10-15T13:09:21;2.23;;;1.43;;
1078;SDS011;528;47.872;11.478;2022-10-15T13:12:16;0.80;;;0.80;;
1078;SDS011;528;47.872;11.478;2022-10-15T13:15:09;1.97;;;1.00;;
1078;SDS011;528;47.872;11.478;2022-10-15T13:17:57;1.00;;;0.90;;
1078;SDS011;528;47.872;11.478;2022-10-15T13:20:58;1.13;;;0.70;;
1078;SDS011;528;47.872;11.478;2022-10-15T13:23:30;0.90;;;0.83;;
1078;SDS011;528;47.872;11.478;2022-10-15T13:26:18;0.93;;;0.70;;
1078;SDS011;528;47.872;11.478;2022-10-15T13:29:20;1.27;;;0.90;;
1078;SDS011;528;47.872;11.478;2022-10-15T13:32:34;0.90;;;0.90;;
1078;SDS011;528;47.872;11.478;2022-10-15T13:35:40;0.80;;;0.80;;
1078;SDS011;528;47.872;11.478;2022-10-15T13:42:07;0.90;;;0.90;;
1078;SDS011;528;47.872;11.478;2022-10-15T13:45:00;0.93;;;0.83;;
1078;SDS011;528;47.872;11.478;2022-10-15T13:47:46;0.80;;;0.80;;
1078;SDS011;528;47.872;11.478;2022-10-15T13:50:37;1.40;;;0.80;;
1078;SDS011;528;47.872;11.478;2022-10-15T13:53:22;0.77;;;0.77;;
1078;SDS011;528;47.872;11.478;2022-10-15T13:55:58;1.23;;;1.13;;
1078;SDS011;528;47.872;11.478;2022-10-15T14:04:20;1.90;;;0.90;;
1078;SDS011;528;47.872;11.478;2022-10-15T14:09:26;0.87;;;0.77;;
1078;SDS011;528;47.872;11.478;2022-10-15T14:14:32;1.00;;;0.70;;
1078;SDS011;528;47.872;11.478;2022-10-15T14:17:02;0.70;;;0.70;;
1078;SDS011;528;47.872;11.478;2022-10-15T14:19:33;0.90;;;0.70;;
1078;SDS011;528;47.872;11.478;2022-10-15T14:22:14;1.47;;;0.80;;
1078;SDS011;528;47.872;11.478;2022-10-15T14:27:34;0.70;;;0.70;;
1078;SDS011;528;47.872;11.478;2022-10-15T14:30:11;0.90;;;0.70;;
1078;SDS011;528;47.872;11.478;2022-10-15T14:41:04;1.80;;;0.70;;
1078;SDS011;528;47.872;11.478;2022-10-15T14:43:58;0.80;;;0.80;;
1078;SDS011;528;47.872;11.478;2022-10-15T14:46:36;0.73;;;0.73;;
1078;SDS011;528;47.872;11.478;2022-10-15T14:49:17;1.20;;;1.10;;
1078;SDS011;528;47.872;11.478;2022-10-15T16:55:15;4.30;;;3.10;;
1078;SDS011;528;47.872;11.478;2022-10-15T16:58:25;2.90;;;2.70;;
1078;SDS011;528;47.872;11.478;2022-10-15T17:01:36;2.03;;;1.80;;
1078;SDS011;528;47.872;11.478;2022-10-15T18:10:00;7.37;;;6.67;;
1078;SDS011;528;47.872;11.478;2022-10-15T18:12:33;7.70;;;7.00;;
1078;SDS011;528;47.872;11.478;2022-10-15T18:15:04;8.43;;;7.60;;
1078;SDS011;528;47.872;11.478;2022-10-15T18:17:32;9.87;;;7.47;;
1078;SDS011;528;47.872;11.478;2022-10-15T18:19:59;7.93;;;6.23;;
1078;SDS011;528;47.872;11.478;2022-10-15T18:25:01;9.10;;;8.20;;
1078;SDS011;528;47.872;11.478;2022-10-15T18:27:29;10.70;;;9.70;;
1078;SDS011;528;47.872;11.478;2022-10-15T18:29:56;10.20;;;8.37;;
1078;SDS011;528;47.872;11.478;2022-10-15T18:32:23;24.07;;;18.20;;
1078;SDS011;528;47.872;11.478;2022-10-15T18:34:51;38.60;;;25.93;;
1078;SDS011;528;47.872;11.478;2022-10-15T18:37:18;33.83;;;24.98;;
1078;SDS011;528;47.872;11.478;2022-10-15T18:39:45;34.23;;;28.13;;
1078;SDS011;528;47.872;11.478;2022-10-15T18:42:14;36.57;;;26.53;;
1078;SDS011;528;47.872;11.478;2022-10-15T18:44:41;32.50;;;27.60;;
1078;SDS011;528;47.872;11.478;2022-10-15T18:47:08;28.40;;;24.53;;
1078;SDS011;528;47.872;11.478;2022-10-15T18:49:36;33.97;;;27.50;;
1078;SDS011;528;47.872;11.478;2022-10-15T18:52:03;31.50;;;25.70;;
1078;SDS011;528;47.872;11.478;2022-10-15T18:54:30;32.63;;;25.87;;
1078;SDS011;528;47.872;11.478;2022-10-15T18:57:00;29.53;;;25.07;;
1078;SDS011;528;47.872;11.478;2022-10-15T18:59:30;38.30;;;30.03;;
1078;SDS011;528;47.872;11.478;2022-10-15T19:01:58;52.87;;;45.80;;
1078;SDS011;528;47.872;11.478;2022-10-15T19:04:26;52.00;;;43.60;;
1078;SDS011;528;47.872;11.478;2022-10-15T19:06:54;41.57;;;36.40;;
1078;SDS011;528;47.872;11.478;2022-10-15T19:09:27;31.20;;;27.80;;
1078;SDS011;528;47.872;11.478;2022-10-15T19:12:03;25.73;;;23.03;;
1078;SDS011;528;47.872;11.478;2022-10-15T19:14:33;18.77;;;16.87;;
1078;SDS011;528;47.872;11.478;2022-10-15T19:17:06;21.90;;;17.87;;
1078;SDS011;528;47.872;11.478;2022-10-15T19:19:47;21.20;;;17.30;;
1078;SDS011;528;47.872;11.478;2022-10-15T19:22:18;20.70;;;17.50;;
1078;SDS011;528;47.872;11.478;2022-10-15T19:24:52;22.30;;;18.37;;
1078;SDS011;528;47.872;11.478;2022-10-15T19:27:20;21.90;;;19.58;;
1078;SDS011;528;47.872;11.478;2022-10-15T19:29:55;19.60;;;17.53;;
1078;SDS011;528;47.872;11.478;2022-10-15T19:32:30;15.30;;;13.47;;
1078;SDS011;528;47.872;11.478;2022-10-15T19:35:01;16.23;;;14.53;;
1078;SDS011;528;47.872;11.478;2022-10-15T19:37:32;25.67;;;21.00;;
1078;SDS011;528;47.872;11.478;2022-10-15T19:40:00;16.73;;;14.60;;
1078;SDS011;528;47.872;11.478;2022-10-15T19:42:30;12.43;;;10.40;;
1078;SDS011;528;47.872;11.478;2022-10-15T19:45:11;10.97;;;9.83;;
1078;SDS011;528;47.872;11.478;2022-10-15T19:47:41;12.53;;;9.63;;
1078;SDS011;528;47.872;11.478;2022-10-15T19:50:11;10.23;;;8.53;;
1078;SDS011;528;47.872;11.478;2022-10-15T19:52:40;9.27;;;8.33;;
1078;SDS011;528;47.872;11.478;2022-10-15T19:55:13;11.03;;;9.70;;
1078;SDS011;528;47.872;11.478;2022-10-15T19:57:42;9.20;;;8.10;;
1078;SDS011;528;47.872;11.478;2022-10-15T20:00:14;8.50;;;7.60;;
1078;SDS011;528;47.872;11.478;2022-10-15T20:02:43;7.30;;;6.17;;
1078;SDS011;528;47.872;11.478;2022-10-15T20:05:13;6.77;;;4.80;;
1078;SDS011;528;47.872;11.478;2022-10-15T20:07:43;6.33;;;5.80;;
1078;SDS011;528;47.872;11.478;2022-10-15T20:10:11;11.73;;;6.57;;
1078;SDS011;528;47.872;11.478;2022-10-15T20:12:42;6.97;;;6.17;;
1078;SDS011;528;47.872;11.478;2022-10-15T20:15:16;6.47;;;5.77;;
1078;SDS011;528;47.872;11.478;2022-10-15T20:17:55;7.23;;;6.53;;
1078;SDS011;528;47.872;11.478;2022-10-15T20:20:27;7.10;;;6.40;;
1078;SDS011;528;47.872;11.478;2022-10-15T20:23:05;11.70;;;10.80;;
1078;SDS011;528;47.872;11.478;2022-10-15T20:25:35;14.10;;;12.70;;
1078;SDS011;528;47.872;11.478;2022-10-15T20:28:03;10.23;;;9.43;;
